Time;durP1;ratioP1;P1;durP2;ratioP2;P2;SDS_P1;SDS_P2;PMS_P1;PMS_P2;Temp;Humidity;BMP_temperature;BMP_pressure;BME280_temperature;BME280_humidity;BME280_pressure;Samples;Min_cycle;Max_cycle;Signal;HPM_P1;HPM_P2
2022/06/08 00:00:56;;;;;;;3.38;2.20;;;;;;;-141.50;100.00;63355.56;5068783;28;20052;-79
2022/06/08 00:03:26;;;;;;;4.90;1.90;;;;;;;-141.50;100.00;63355.56;5069478;28;20688;-79
2022/06/08 00:05:53;;;;;;;6.07;2.10;;;;;;;-141.50;100.00;63355.56;5069341;28;20052;-78
2022/06/08 00:08:19;;;;;;;3.78;1.75;;;;;;;-141.50;100.00;63355.56;5051166;28;20052;-78
2022/06/08 00:10:46;;;;;;;3.33;1.80;;;;;;;-141.50;100.00;63355.56;5051384;28;20057;-79
2022/06/08 00:13:12;;;;;;;5.15;1.70;;;;;;;-141.50;100.00;63355.56;5053619;28;20056;-79
2022/06/08 00:15:42;;;;;;;2.72;1.40;;;;;;;-141.50;100.00;63355.56;5055897;28;20087;-79
2022/06/08 00:18:10;;;;;;;4.47;1.90;;;;;;;-141.50;100.00;63355.56;5055925;28;20056;-79
2022/06/08 00:20:38;;;;;;;2.15;1.25;;;;;;;-141.50;100.00;63355.56;5075901;28;20073;-79
2022/06/08 00:23:06;;;;;;;3.08;1.60;;;;;;;-141.50;100.00;63355.56;5074429;28;20148;-79
2022/06/08 00:25:34;;;;;;;5.95;1.70;;;;;;;-141.50;100.00;63355.56;5072785;28;20048;-78
2022/06/08 00:28:00;;;;;;;2.38;1.50;;;;;;;-141.50;100.00;63355.56;5071939;28;20048;-78
2022/06/08 00:30:27;;;;;;;3.00;1.63;;;;;;;-141.50;100.00;63355.56;5055640;28;20103;-78
2022/06/08 00:32:54;;;;;;;6.30;1.55;;;;;;;-141.50;100.00;63355.56;5073903;28;20091;-79
2022/06/08 00:35:23;;;;;;;2.53;1.65;;;;;;;-141.50;100.00;63355.56;5074249;28;20124;-79
2022/06/08 00:37:49;;;;;;;4.60;1.70;;;;;;;-141.50;100.00;63355.56;5074185;28;20048;-80
2022/06/08 00:40:20;;;;;;;3.40;1.50;;;;;;;-141.50;100.00;63355.56;5074010;28;20095;-78
2022/06/08 00:42:47;;;;;;;2.63;1.60;;;;;;;-141.50;100.00;63355.56;5073349;28;20235;-78
2022/06/08 00:45:17;;;;;;;2.28;1.48;;;;;;;-141.50;100.00;63355.56;5065496;28;20052;-78
2022/06/08 00:47:55;;;;;;;1.67;1.50;;;;;;;-141.50;100.00;63355.56;5076871;28;20438;-78
2022/06/08 00:50:36;;;;;;;3.30;2.03;;;;;;;-141.50;100.00;63355.56;5073938;28;20059;-79
2022/06/08 00:53:05;;;;;;;3.80;1.83;;;;;;;-141.50;100.00;63355.56;5072279;28;20135;-79
2022/06/08 00:55:35;;;;;;;5.93;1.95;;;;;;;-141.50;100.00;63355.56;5055734;28;20418;-79
2022/06/08 00:58:06;;;;;;;2.42;1.60;;;;;;;-141.50;100.00;63355.56;5073773;28;20628;-79
2022/06/08 01:00:37;;;;;;;2.05;1.73;;;;;;;-141.50;100.00;63355.56;5072760;28;20048;-78
2022/06/08 01:03:10;;;;;;;1.92;1.40;;;;;;;-141.50;100.00;63355.56;5072795;28;20564;-78
2022/06/08 01:05:46;;;;;;;2.13;1.63;;;;;;;-141.50;100.00;63355.56;5073455;28;20041;-79
2022/06/08 01:08:19;;;;;;;;;;;;;;;-141.50;100.00;63355.56;5072334;28;20065;-78
2022/06/08 01:10:49;;;;;;;2.90;1.60;;;;;;;-141.50;100.00;63355.56;5071891;28;20586;-79
2022/06/08 01:13:19;;;;;;;3.60;1.60;;;;;;;-141.50;100.00;63355.56;5073394;28;20513;-78
2022/06/08 01:15:46;;;;;;;3.22;1.50;;;;;;;-141.50;100.00;63355.56;5073208;28;20078;-79
2022/06/08 01:18:13;;;;;;;7.65;1.63;;;;;;;-141.50;100.00;63355.56;5055521;28;20063;-78
2022/06/08 01:20:49;;;;;;;2.35;1.20;;;;;;;-141.50;100.00;63355.56;5054220;28;20502;-79
2022/06/08 01:23:19;;;;;;;3.78;1.50;;;;;;;-141.50;100.00;63355.56;5056549;28;20080;-79
2022/06/08 01:26:18;;;;;;;3.75;1.35;;;;;;;-141.50;100.00;63355.56;5072945;28;20152;-77
2022/06/08 01:28:53;;;;;;;3.15;1.65;;;;;;;-141.50;100.00;63355.56;5047963;28;20114;-78
2022/06/08 01:31:42;;;;;;;3.88;1.40;;;;;;;-141.50;100.00;63355.56;5070618;28;20082;-77
2022/06/08 01:34:17;;;;;;;3.45;1.40;;;;;;;-141.50;100.00;63355.56;5055127;28;20079;-78
2022/06/08 01:37:02;;;;;;;5.55;1.70;;;;;;;-141.50;100.00;63355.56;5054172;28;20087;-78
2022/06/08 01:39:31;;;;;;;4.25;1.80;;;;;;;-141.50;100.00;63355.56;5070399;28;20380;-79
2022/06/08 01:42:25;;;;;;;5.30;1.50;;;;;;;-141.50;100.00;63355.56;5070807;28;20052;-78
2022/06/08 01:48:01;;;;;;;4.95;1.65;;;;;;;-141.50;100.00;63355.56;5081897;28;20074;-82
2022/06/08 01:50:50;;;;;;;4.35;1.90;;;;;;;-141.50;100.00;63355.56;5070692;28;20052;-79
2022/06/08 01:53:36;;;;;;;4.22;1.70;;;;;;;-141.50;100.00;63355.56;5070433;28;20052;-78
2022/06/08 01:56:13;;;;;;;5.70;1.52;;;;;;;-141.50;100.00;63355.56;5070287;28;20072;-79
2022/06/08 01:58:49;;;;;;;2.85;1.48;;;;;;;-141.50;100.00;63355.56;5069720;28;20628;-79
2022/06/08 02:01:26;;;;;;;9.20;1.70;;;;;;;-141.50;100.00;63355.56;5052506;28;20117;-79
2022/06/08 02:04:19;;;;;;;4.75;1.58;;;;;;;-141.50;100.00;63355.56;5070378;28;20060;-78
2022/06/08 02:06:51;;;;;;;3.85;1.48;;;;;;;-141.50;100.00;63355.56;5069807;28;20087;-78
2022/06/08 02:09:27;;;;;;;6.75;1.70;;;;;;;-141.50;100.00;63355.56;5070479;28;20052;-78
2022/06/08 02:11:57;;;;;;;2.45;1.67;;;;;;;-141.50;100.00;63355.56;5083616;28;20056;-77
2022/06/08 02:14:32;;;;;;;3.85;1.55;;;;;;;-141.50;100.00;63355.56;5087374;28;20048;-77
2022/06/08 02:17:07;;;;;;;3.85;1.77;;;;;;;-141.50;100.00;63355.56;5082600;28;20067;-78
2022/06/08 02:19:41;;;;;;;4.68;1.70;;;;;;;-141.50;100.00;63355.56;5069261;28;20071;-79
2022/06/08 02:22:14;;;;;;;3.05;1.70;;;;;;;-141.50;100.00;63355.56;5052924;28;20474;-79
2022/06/08 02:24:54;;;;;;;3.17;1.65;;;;;;;-141.50;100.00;63355.56;5068601;28;20079;-77
2022/06/08 02:28:03;;;;;;;4.75;1.98;;;;;;;-141.50;100.00;63355.56;5069622;28;20052;-77
2022/06/08 02:30:38;;;;;;;3.47;1.60;;;;;;;-141.50;100.00;63355.56;5047902;28;20594;-77
2022/06/08 02:36:02;;;;;;;3.50;1.88;;;;;;;-141.50;100.00;63355.56;5066171;28;20102;-78
2022/06/08 02:38:35;;;;;;;5.32;1.60;;;;;;;-141.50;100.00;63355.56;5060633;28;20052;-78
2022/06/08 02:41:06;;;;;;;6.88;1.65;;;;;;;-141.50;100.00;63355.56;5070285;28;20135;-78
2022/06/08 02:43:48;;;;;;;9.68;1.60;;;;;;;-141.50;100.00;63355.56;5070458;28;20533;-78
2022/06/08 02:46:43;;;;;;;5.50;1.50;;;;;;;-141.50;100.00;63355.56;5068724;28;20064;-78
2022/06/08 02:49:12;;;;;;;4.18;1.45;;;;;;;-141.50;100.00;63355.56;5069179;28;20438;-79
2022/06/08 02:51:46;;;;;;;9.18;2.05;;;;;;;-141.50;100.00;63355.56;5068700;28;20127;-79
2022/06/08 02:54:25;;;;;;;5.05;1.50;;;;;;;-141.50;100.00;63355.56;5050745;28;20059;-79
2022/06/08 02:56:52;;;;;;;6.45;1.67;;;;;;;-141.50;100.00;63355.56;5068271;28;20052;-78
2022/06/08 02:59:18;;;;;;;6.95;1.73;;;;;;;-141.50;100.00;63355.56;5053037;28;20094;-79
2022/06/08 03:01:56;;;;;;;9.32;1.60;;;;;;;-141.50;100.00;63355.56;5071936;28;20448;-78
2022/06/08 03:04:47;;;;;;;8.35;1.85;;;;;;;-141.50;100.00;63355.56;5072339;28;20188;-79
2022/06/08 03:07:23;;;;;;;4.90;1.60;;;;;;;-141.50;100.00;63355.56;5075748;28;20276;-80
2022/06/08 03:09:51;;;;;;;9.68;1.90;;;;;;;-141.50;100.00;63355.56;5078068;28;20052;-80
2022/06/08 03:12:25;;;;;;;14.45;1.90;;;;;;;-141.50;100.00;63355.56;5069725;28;20131;-80
2022/06/08 03:14:52;;;;;;;8.32;1.67;;;;;;;-141.50;100.00;63355.56;5051271;28;20080;-79
2022/06/08 03:17:25;;;;;;;9.25;2.38;;;;;;;-141.50;100.00;63355.56;5069644;28;20044;-78
2022/06/08 03:19:51;;;;;;;6.45;2.10;;;;;;;-141.50;100.00;63355.56;5069816;28;20115;-77
2022/06/08 03:22:20;;;;;;;5.30;2.13;;;;;;;-141.50;100.00;63355.56;5069690;28;20044;-78
2022/06/08 03:24:47;;;;;;;6.88;2.28;;;;;;;-141.50;100.00;63355.56;5062395;28;20595;-77
2022/06/08 03:27:14;;;;;;;15.10;2.50;;;;;;;-141.50;100.00;63355.56;5051579;28;20052;-78
2022/06/08 03:29:44;;;;;;;11.45;2.30;;;;;;;-141.50;100.00;63355.56;5054186;28;20083;-78
2022/06/08 03:32:11;;;;;;;5.93;2.10;;;;;;;-141.50;100.00;63355.56;5052285;28;20060;-78
2022/06/08 03:34:37;;;;;;;6.88;2.17;;;;;;;-141.50;100.00;63355.56;5081436;28;20095;-78
2022/06/08 03:37:05;;;;;;;6.13;2.05;;;;;;;-141.50;100.00;63355.56;5088891;28;20056;-78
2022/06/08 03:39:32;;;;;;;11.25;2.58;;;;;;;-141.50;100.00;63355.56;5072444;28;20081;-79
2022/06/08 03:41:59;;;;;;;10.32;2.72;;;;;;;-141.50;100.00;63355.56;5076651;28;20490;-79
2022/06/08 03:44:26;;;;;;;7.88;2.22;;;;;;;-141.50;100.00;63355.56;5088681;28;20082;-79
2022/06/08 03:47:07;;;;;;;3.85;2.00;;;;;;;-141.50;100.00;63355.56;5085992;28;20170;-80
2022/06/08 03:49:37;;;;;;;4.90;2.22;;;;;;;-141.50;100.00;63355.56;5055680;28;20079;-79
2022/06/08 03:52:10;;;;;;;4.97;2.20;;;;;;;-141.50;100.00;63355.56;5062804;28;20056;-78
2022/06/08 03:54:40;;;;;;;5.18;2.33;;;;;;;-141.50;100.00;63355.56;5094883;28;20135;-79
2022/06/08 03:57:14;;;;;;;4.38;2.50;;;;;;;-141.50;100.00;63355.56;5062181;28;20098;-79
2022/06/08 03:59:44;;;;;;;5.03;2.40;;;;;;;-141.50;100.00;63355.56;5078225;28;20044;-79
2022/06/08 04:02:13;;;;;;;6.43;2.22;;;;;;;-141.50;100.00;63355.56;5058418;28;20679;-77
2022/06/08 04:04:41;;;;;;;3.30;2.25;;;;;;;-141.50;100.00;63355.56;5071980;28;20055;-78
2022/06/08 04:07:08;;;;;;;4.60;2.20;;;;;;;-141.50;100.00;63355.56;5071893;28;20048;-78
2022/06/08 04:09:35;;;;;;;6.03;2.35;;;;;;;-141.50;100.00;63355.56;5054183;28;20079;-79
2022/06/08 04:12:03;;;;;;;6.47;2.63;;;;;;;-141.50;100.00;63355.56;5073999;28;20080;-80
2022/06/08 04:14:30;;;;;;;4.72;2.20;;;;;;;-141.50;100.00;63355.56;5055391;28;20115;-78
2022/06/08 04:16:56;;;;;;;4.63;2.20;;;;;;;-141.50;100.00;63355.56;5073256;28;20048;-76
2022/06/08 04:19:24;;;;;;;4.45;2.25;;;;;;;-141.50;100.00;63355.56;5057101;28;20056;-77
2022/06/08 04:21:51;;;;;;;6.55;1.80;;;;;;;-141.50;100.00;63355.56;5071975;28;20096;-78
2022/06/08 04:24:19;;;;;;;7.43;1.50;;;;;;;-141.50;100.00;63355.56;5055303;28;20103;-80
2022/06/08 04:26:45;;;;;;;3.40;1.40;;;;;;;-141.50;100.00;63355.56;5073791;28;20044;-79
2022/06/08 04:29:12;;;;;;;2.20;1.20;;;;;;;-141.50;100.00;63355.56;5074944;28;20048;-80
2022/06/08 04:31:38;;;;;;;2.05;1.05;;;;;;;-141.50;100.00;63355.56;5057629;28;20190;-78
2022/06/08 04:34:07;;;;;;;1.80;1.02;;;;;;;-141.50;100.00;63355.56;5059729;28;20044;-79
2022/06/08 04:36:35;;;;;;;6.90;1.40;;;;;;;-141.50;100.00;63355.56;5057599;28;20439;-80
2022/06/08 04:39:04;;;;;;;3.40;1.10;;;;;;;-141.50;100.00;63355.56;5084173;28;20235;-77
2022/06/08 04:41:32;;;;;;;1.65;0.60;;;;;;;-141.50;100.00;63355.56;5088680;28;20087;-79
2022/06/08 04:43:59;;;;;;;4.03;1.02;;;;;;;-141.50;100.00;63355.56;5094023;28;20139;-80
2022/06/08 04:46:26;;;;;;;1.65;0.70;;;;;;;-141.50;100.00;63355.56;5075482;28;20089;-78
2022/06/08 04:48:52;;;;;;;1.20;0.95;;;;;;;-141.50;100.00;63355.56;5093543;28;20086;-79
2022/06/08 04:51:22;;;;;;;2.35;0.95;;;;;;;-141.50;100.00;63355.56;5076066;28;20480;-79
2022/06/08 04:53:49;;;;;;;2.35;0.80;;;;;;;-141.50;100.00;63355.56;5093223;28;20101;-79
2022/06/08 04:56:16;;;;;;;4.20;0.90;;;;;;;-141.50;100.00;63355.56;5090061;28;20048;-79
2022/06/08 04:58:43;;;;;;;1.40;0.90;;;;;;;-141.50;100.00;63355.56;5081469;28;20052;-80
2022/06/08 05:01:10;;;;;;;5.47;0.95;;;;;;;-141.50;100.00;63355.56;5083903;28;20044;-79
2022/06/08 05:03:36;;;;;;;1.25;0.90;;;;;;;-141.50;100.00;63355.56;5080150;28;20057;-79
2022/06/08 05:06:03;;;;;;;3.15;0.95;;;;;;;-141.50;100.00;63355.56;5070077;28;20124;-80
2022/06/08 05:08:30;;;;;;;4.88;1.00;;;;;;;-141.50;100.00;63355.56;5080724;28;20117;-80
2022/06/08 05:10:57;;;;;;;4.18;1.00;;;;;;;-141.50;100.00;63355.56;5070007;28;20048;-78
2022/06/08 05:13:24;;;;;;;2.15;0.85;;;;;;;-141.50;100.00;63355.56;5070709;28;20670;-79
2022/06/08 05:15:51;;;;;;;1.08;0.80;;;;;;;-141.50;100.00;63355.56;5071492;28;20190;-80
2022/06/08 05:18:22;;;;;;;2.38;0.70;;;;;;;-141.50;100.00;63355.56;5072175;28;20056;-78
2022/06/08 05:20:49;;;;;;;2.67;0.95;;;;;;;-141.50;100.00;63355.56;5072642;28;20106;-78
2022/06/08 05:23:23;;;;;;;2.55;0.73;;;;;;;-141.50;100.00;63355.56;5054300;28;20048;-78
2022/06/08 05:25:52;;;;;;;1.38;0.90;;;;;;;-141.50;100.00;63355.56;5072722;28;20517;-80
2022/06/08 05:28:18;;;;;;;1.98;0.82;;;;;;;-141.50;100.00;63355.56;5072324;28;20098;-78
2022/06/08 05:30:45;;;;;;;2.42;0.98;;;;;;;-141.50;100.00;63355.56;5071299;28;20045;-78
2022/06/08 05:33:12;;;;;;;0.93;0.75;;;;;;;-141.50;100.00;63355.56;5054579;28;20052;-79
2022/06/08 05:35:39;;;;;;;2.70;0.82;;;;;;;-141.50;100.00;63355.56;5071372;28;20132;-79
2022/06/08 05:38:09;;;;;;;4.53;0.98;;;;;;;-141.50;100.00;63355.56;5055356;28;20114;-80
2022/06/08 05:40:37;;;;;;;2.25;1.02;;;;;;;-141.50;100.00;63355.56;5055374;28;20048;-80
2022/06/08 05:43:10;;;;;;;6.75;1.20;;;;;;;-141.50;100.00;63355.56;5070794;28;20053;-80
2022/06/08 05:45:38;;;;;;;3.85;1.10;;;;;;;-141.50;100.00;63355.56;5054773;28;20490;-79
2022/06/08 05:48:07;;;;;;;1.80;0.90;;;;;;;-141.50;100.00;63355.56;5071652;28;20098;-79
2022/06/08 05:50:35;;;;;;;3.80;1.05;;;;;;;-141.50;100.00;63355.56;5070848;28;20579;-79
2022/06/08 05:53:03;;;;;;;1.83;0.98;;;;;;;-141.50;100.00;63355.56;5053842;28;20052;-79
2022/06/08 05:55:30;;;;;;;3.95;1.05;;;;;;;-141.50;100.00;63355.56;5071577;28;20088;-79
2022/06/08 05:57:57;;;;;;;2.03;1.20;;;;;;;-141.50;100.00;63355.56;5071950;28;20131;-79
2022/06/08 06:00:29;;;;;;;4.03;1.20;;;;;;;-141.50;100.00;63355.56;5072472;28;20052;-80
2022/06/08 06:02:57;;;;;;;2.08;0.80;;;;;;;-141.50;100.00;63355.56;5071987;28;20082;-79
2022/06/08 06:05:30;;;;;;;2.47;1.10;;;;;;;-141.50;100.00;63355.56;5071696;28;20075;-78
2022/06/08 06:07:57;;;;;;;2.45;1.10;;;;;;;-141.50;100.00;63355.56;5084777;28;20079;-80
2022/06/08 06:10:29;;;;;;;1.92;1.05;;;;;;;-141.50;100.00;63355.56;5087606;28;20128;-79
2022/06/08 06:12:55;;;;;;;3.45;0.90;;;;;;;-141.50;100.00;63355.56;5068345;28;20102;-80
2022/06/08 06:15:23;;;;;;;4.32;0.93;;;;;;;-141.50;100.00;63355.56;5086055;28;20044;-79
2022/06/08 06:17:50;;;;;;;5.15;1.10;;;;;;;-141.50;100.00;63355.56;5087507;28;20048;-80
2022/06/08 06:20:18;;;;;;;16.13;1.50;;;;;;;-141.50;100.00;63355.56;5084711;28;20082;-79
2022/06/08 06:22:44;;;;;;;1.75;0.80;;;;;;;-141.50;100.00;63355.56;5086761;28;20048;-80
2022/06/08 06:25:11;;;;;;;3.90;1.00;;;;;;;-141.50;100.00;63355.56;5056889;28;20128;-79
2022/06/08 06:27:38;;;;;;;3.30;1.20;;;;;;;-141.50;100.00;63355.56;5077492;28;20049;-79
2022/06/08 06:30:06;;;;;;;3.83;1.00;;;;;;;-141.50;100.00;63355.56;5072837;28;20045;-80
2022/06/08 06:32:35;;;;;;;2.13;1.08;;;;;;;-141.50;100.00;63355.56;5070285;28;20138;-79
2022/06/08 06:35:04;;;;;;;2.55;1.20;;;;;;;-141.50;100.00;63355.56;5069286;28;20099;-81
2022/06/08 06:37:31;;;;;;;4.28;1.10;;;;;;;-141.50;100.00;63355.56;5069365;28;20052;-79
2022/06/08 06:39:58;;;;;;;3.33;1.00;;;;;;;-141.50;100.00;63355.56;5069929;28;20052;-79
2022/06/08 06:42:27;;;;;;;1.60;1.00;;;;;;;-141.50;100.00;63355.56;5072253;28;20048;-79
2022/06/08 06:44:54;;;;;;;2.78;1.00;;;;;;;-141.50;100.00;63355.56;5069858;28;20099;-80
2022/06/08 06:47:20;;;;;;;1.95;1.05;;;;;;;-141.50;100.00;63355.56;5078070;28;20135;-75
2022/06/08 06:49:47;;;;;;;2.63;0.70;;;;;;;-141.50;100.00;63355.56;5066324;28;20114;-77
2022/06/08 06:52:17;;;;;;;1.60;0.90;;;;;;;-141.50;100.00;63355.56;5071594;28;20052;-76
2022/06/08 06:54:45;;;;;;;1.60;0.70;;;;;;;-141.50;100.00;63355.56;5072749;28;20044;-76
2022/06/08 06:57:11;;;;;;;4.03;1.00;;;;;;;-141.50;100.00;63355.56;5088731;28;20089;-76
2022/06/08 06:59:39;;;;;;;1.98;0.90;;;;;;;-141.50;100.00;63355.56;5066499;28;20291;-78
2022/06/08 07:02:12;;;;;;;3.40;0.88;;;;;;;-141.50;100.00;63355.56;5084722;28;20044;-77
2022/06/08 07:04:40;;;;;;;2.05;0.88;;;;;;;-141.50;100.00;63355.56;5086538;28;20059;-77
2022/06/08 07:07:07;;;;;;;2.25;0.88;;;;;;;-141.50;100.00;63355.56;5083615;28;20044;-76
2022/06/08 07:09:34;;;;;;;6.78;1.00;;;;;;;-141.50;100.00;63355.56;5082101;28;20052;-75
2022/06/08 07:12:01;;;;;;;2.65;1.00;;;;;;;-141.50;100.00;63355.56;5079193;28;20090;-79
2022/06/08 07:14:28;;;;;;;2.22;1.17;;;;;;;-141.50;100.00;63355.56;5081848;28;20056;-77
2022/06/08 07:16:55;;;;;;;2.13;1.00;;;;;;;-141.50;100.00;63355.56;5083408;28;20048;-77
2022/06/08 07:19:22;;;;;;;4.47;0.80;;;;;;;-141.50;100.00;63355.56;5089379;28;20052;-77
2022/06/08 07:21:49;;;;;;;4.78;1.10;;;;;;;-141.50;100.00;63355.56;5058149;28;20048;-77
2022/06/08 07:24:19;;;;;;;5.90;1.00;;;;;;;-141.50;100.00;63355.56;5081649;28;20055;-77
2022/06/08 07:26:46;;;;;;;3.35;1.00;;;;;;;-141.50;100.00;63355.56;5066131;28;20056;-76
2022/06/08 07:29:16;;;;;;;3.95;1.10;;;;;;;-141.50;100.00;63355.56;5065899;28;20049;-76
2022/06/08 07:31:43;;;;;;;1.48;0.82;;;;;;;-141.50;100.00;63355.56;5082576;28;20120;-78
2022/06/08 07:34:12;;;;;;;2.47;1.08;;;;;;;-141.50;100.00;63355.56;5083801;28;20052;-77
2022/06/08 07:36:38;;;;;;;2.13;1.00;;;;;;;-141.50;100.00;63355.56;5063469;28;20055;-80
2022/06/08 07:39:09;;;;;;;2.80;0.80;;;;;;;-141.50;100.00;63355.56;5066206;28;20191;-78
2022/06/08 07:41:36;;;;;;;1.02;0.60;;;;;;;-141.50;100.00;63355.56;5064908;28;20544;-78
2022/06/08 07:44:05;;;;;;;1.60;0.75;;;;;;;-141.50;100.00;63355.56;5084423;28;20075;-79
2022/06/08 07:46:32;;;;;;;3.65;0.90;;;;;;;-141.50;100.00;63355.56;5067096;28;20045;-77
2022/06/08 07:51:53;;;;;;;9.88;1.00;;;;;;;-141.50;100.00;63355.56;5084365;28;20075;-76
2022/06/08 07:54:25;;;;;;;3.83;0.82;;;;;;;-141.50;100.00;63355.56;5084228;28;20071;-76
2022/06/08 07:56:53;;;;;;;3.35;0.80;;;;;;;-141.50;100.00;63355.56;5082359;28;20041;-76
2022/06/08 07:59:22;;;;;;;1.50;0.80;;;;;;;-141.50;100.00;63355.56;5083776;28;20087;-78
2022/06/08 08:01:50;;;;;;;2.58;1.02;;;;;;;-141.50;100.00;63355.56;5083767;28;20048;-78
2022/06/08 08:04:17;;;;;;;1.58;0.77;;;;;;;-141.50;100.00;63355.56;5085606;28;20094;-74
2022/06/08 08:06:44;;;;;;;2.47;0.65;;;;;;;-141.50;100.00;63355.56;5085625;28;20060;-77
2022/06/08 08:09:17;;;;;;;2.25;0.80;;;;;;;-141.50;100.00;63355.56;5089266;28;20053;-75
2022/06/08 08:11:45;;;;;;;3.28;0.70;;;;;;;-141.50;100.00;63355.56;5063219;28;20055;-78
2022/06/08 08:14:14;;;;;;;1.52;0.70;;;;;;;-141.50;100.00;63355.56;5083125;28;20048;-78
2022/06/08 08:16:43;;;;;;;1.42;0.60;;;;;;;-141.50;100.00;63355.56;5079084;28;20052;-76
2022/06/08 08:19:11;;;;;;;2.25;0.70;;;;;;;-141.50;100.00;63355.56;5076195;28;20060;-77
2022/06/08 08:21:41;;;;;;;1.77;0.60;;;;;;;-141.50;100.00;63355.56;5081481;28;20075;-77
2022/06/08 08:24:08;;;;;;;6.18;0.75;;;;;;;-141.50;100.00;63355.56;5084108;28;20075;-79
2022/06/08 08:26:34;;;;;;;1.90;0.63;;;;;;;-141.50;100.00;63355.56;5083137;28;20044;-76
2022/06/08 08:29:05;;;;;;;5.32;1.20;;;;;;;-141.50;100.00;63355.56;5084395;28;20383;-76
2022/06/08 08:31:32;;;;;;;1.63;0.60;;;;;;;-141.50;100.00;63355.56;5084539;28;20298;-79
2022/06/08 08:33:59;;;;;;;3.53;0.88;;;;;;;-141.50;100.00;63355.56;5086709;28;20111;-77
2022/06/08 08:36:27;;;;;;;3.00;0.70;;;;;;;-141.50;100.00;63355.56;5086257;28;20056;-78
2022/06/08 08:38:54;;;;;;;2.53;0.98;;;;;;;-141.50;100.00;63355.56;5083707;28;20063;-76
2022/06/08 08:44:47;;;;;;;2.92;0.90;;;;;;;-141.50;100.00;63355.56;5092471;28;20101;-76
2022/06/08 08:47:35;;;;;;;2.05;0.80;;;;;;;-141.50;100.00;63355.56;5088391;28;20049;-77
2022/06/08 08:50:20;;;;;;;3.05;1.00;;;;;;;-141.50;100.00;63355.56;5068462;28;20091;-76
2022/06/08 08:53:02;;;;;;;2.78;0.80;;;;;;;-141.50;100.00;63355.56;5069175;28;20153;-80
2022/06/08 08:55:48;;;;;;;5.70;1.08;;;;;;;-141.50;100.00;63355.56;5065181;28;20439;-78
2022/06/08 08:58:16;;;;;;;2.58;1.00;;;;;;;-141.50;100.00;63355.56;5080095;28;20471;-77
2022/06/08 09:00:54;;;;;;;3.83;0.93;;;;;;;-141.50;100.00;63355.56;5082582;28;20052;-77
2022/06/08 09:03:27;;;;;;;1.90;1.00;;;;;;;-141.50;100.00;63355.56;5088146;28;20106;-76
2022/06/08 09:06:13;;;;;;;6.65;1.10;;;;;;;-141.50;100.00;63355.56;5087600;28;20146;-77
2022/06/08 09:08:43;;;;;;;;;;;;;;;-141.50;100.00;63355.56;5085639;28;20509;-78
2022/06/08 09:11:24;;;;;;;2.80;0.85;;;;;;;-141.50;100.00;63355.56;5087220;28;19970;-77
2022/06/08 09:13:54;;;;;;;3.85;1.10;;;;;;;-141.50;100.00;63355.56;5076897;28;20076;-78
2022/06/08 09:16:31;;;;;;;2.03;1.08;;;;;;;-141.50;100.00;63355.56;5081365;28;20059;-76
2022/06/08 09:19:21;;;;;;;3.83;1.20;;;;;;;-141.50;100.00;63355.56;5083963;28;20424;-77
2022/06/08 09:21:51;;;;;;;3.28;1.00;;;;;;;-141.50;100.00;63355.56;5086446;28;20045;-77
2022/06/08 09:24:17;;;;;;;2.08;0.95;;;;;;;-141.50;100.00;63355.56;5087411;28;20053;-79
2022/06/08 09:26:44;;;;;;;1.65;0.90;;;;;;;-141.50;100.00;63355.56;5087000;28;20113;-78
2022/06/08 09:29:11;;;;;;;2.15;0.90;;;;;;;-141.50;100.00;63355.56;5088143;28;20048;-79
2022/06/08 09:31:39;;;;;;;3.30;1.27;;;;;;;-141.50;100.00;63355.56;5067736;28;20045;-78
2022/06/08 09:34:26;;;;;;;7.25;1.13;;;;;;;-141.50;100.00;63355.56;5084072;28;20056;-77
2022/06/08 09:37:10;;;;;;;1.90;1.10;;;;;;;-141.50;100.00;63355.56;5085437;28;20048;-77
2022/06/08 09:39:38;;;;;;;2.45;1.15;;;;;;;-141.50;100.00;63355.56;5083946;28;20052;-78
2022/06/08 09:42:25;;;;;;;3.20;1.08;;;;;;;-141.50;100.00;63355.56;5085623;28;20052;-77
2022/06/08 09:45:02;;;;;;;1.52;0.90;;;;;;;-141.50;100.00;63355.56;5074171;28;20053;-77
2022/06/08 09:53:39;;;;;;;1.73;1.00;;;;;;;-141.50;100.00;63355.56;5087560;28;20063;-74
2022/06/08 09:56:34;;;;;;;2.28;0.90;;;;;;;-141.50;100.00;63355.56;5061818;28;20055;-77
2022/06/08 09:59:23;;;;;;;1.13;0.65;;;;;;;-141.50;100.00;63355.56;5087053;28;20051;-77
2022/06/08 10:01:57;;;;;;;1.27;0.57;;;;;;;-141.50;100.00;63355.56;5087166;28;20051;-77
2022/06/08 10:04:42;;;;;;;2.22;0.65;;;;;;;-141.50;100.00;63355.56;5088277;28;20048;-75
2022/06/08 10:07:19;;;;;;;4.13;0.82;;;;;;;-141.50;100.00;63355.56;5088708;28;20105;-75
2022/06/08 10:10:14;;;;;;;1.75;0.80;;;;;;;-141.50;100.00;63355.56;5086702;28;20035;-75
2022/06/08 10:12:44;;;;;;;3.40;0.70;;;;;;;-141.50;100.00;63355.56;5086891;28;20376;-75
2022/06/08 10:15:34;;;;;;;1.95;0.80;;;;;;;-141.50;100.00;63355.56;5089076;28;20040;-77
2022/06/08 10:18:14;;;;;;;1.10;0.60;;;;;;;-141.50;100.00;63355.56;5086772;28;20048;-74
2022/06/08 10:20:55;;;;;;;2.83;1.00;;;;;;;-141.50;100.00;63355.56;5074017;28;20048;-78
2022/06/08 10:23:56;;;;;;;2.60;0.85;;;;;;;-141.50;100.00;63355.56;5090284;28;20048;-77
2022/06/08 10:26:46;;;;;;;2.45;0.98;;;;;;;-141.50;100.00;63355.56;5091615;28;20083;-77
2022/06/08 10:29:23;;;;;;;5.15;1.00;;;;;;;-141.50;100.00;63355.56;5090201;28;20072;-78
2022/06/08 10:31:54;;;;;;;4.00;0.90;;;;;;;-141.50;100.00;63355.56;5089049;28;20562;-79
2022/06/08 10:34:33;;;;;;;1.98;1.10;;;;;;;-141.50;100.00;63355.56;5090113;28;20048;-77
2022/06/08 10:37:05;;;;;;;2.95;0.90;;;;;;;-141.50;100.00;63355.56;5088175;28;20052;-77
2022/06/08 10:39:34;;;;;;;2.28;0.93;;;;;;;-141.50;100.00;63355.56;5084059;28;20048;-78
2022/06/08 10:45:28;;;;;;;6.85;1.10;;;;;;;-141.50;100.00;63355.56;5086035;28;20056;-78
2022/06/08 10:48:13;;;;;;;1.77;0.80;;;;;;;-141.50;100.00;63355.56;5051644;28;20041;-77
2022/06/08 10:50:44;;;;;;;2.22;0.70;;;;;;;-141.50;100.00;63355.56;5087646;28;20079;-75
2022/06/08 10:56:55;;;;;;;2.75;1.42;;;;;;;-141.50;100.00;63355.56;5086810;28;20120;-77
2022/06/08 10:59:22;;;;;;;;;;;;;;;-141.50;100.00;63355.56;5087366;28;20352;-77
2022/06/08 11:02:15;;;;;;;1.30;0.80;;;;;;;-141.50;100.00;63355.56;5068787;28;19967;-79
2022/06/08 11:05:08;;;;;;;2.53;0.80;;;;;;;-141.50;100.00;63355.56;5089393;28;20048;-77
2022/06/08 11:07:57;;;;;;;2.45;0.90;;;;;;;-141.50;100.00;63355.56;5089638;28;20085;-76
2022/06/08 11:10:57;;;;;;;1.52;0.80;;;;;;;-141.50;100.00;63355.56;5088868;28;20076;-78
2022/06/08 11:13:30;;;;;;;1.35;0.80;;;;;;;-141.50;100.00;63355.56;5069572;28;20052;-77
2022/06/08 11:16:27;;;;;;;2.50;1.00;;;;;;;-141.50;100.00;63355.56;5086739;28;20059;-78
2022/06/08 11:19:02;;;;;;;5.35;0.90;;;;;;;-141.50;100.00;63355.56;5086881;28;20051;-78
2022/06/08 11:21:49;;;;;;;9.05;1.10;;;;;;;-141.50;100.00;63355.56;5086944;28;20078;-80
2022/06/08 11:24:28;;;;;;;2.13;0.90;;;;;;;-141.50;100.00;63355.56;5068482;28;20086;-79
2022/06/08 11:27:11;;;;;;;1.60;0.80;;;;;;;-141.50;100.00;63355.56;5086440;28;20056;-78
2022/06/08 11:29:45;;;;;;;5.20;0.95;;;;;;;-141.50;100.00;63355.56;5084574;28;20070;-78
2022/06/08 11:32:31;;;;;;;1.60;0.90;;;;;;;-141.50;100.00;63355.56;5084355;28;20113;-78
2022/06/08 11:35:27;;;;;;;4.63;1.00;;;;;;;-141.50;100.00;63355.56;5028268;28;20049;-77
2022/06/08 11:38:17;;;;;;;2.57;0.80;;;;;;;-141.50;100.00;63355.56;5069459;28;20114;-78
2022/06/08 11:40:48;;;;;;;1.90;0.82;;;;;;;-141.50;100.00;63355.56;5081427;28;20061;-80
2022/06/08 11:43:18;;;;;;;3.70;0.95;;;;;;;-141.50;100.00;63355.56;5084570;28;20059;-80
2022/06/08 11:45:54;;;;;;;3.13;0.90;;;;;;;-141.50;100.00;63355.56;5065108;28;20048;-78
2022/06/08 11:48:43;;;;;;;2.83;1.00;;;;;;;-141.50;100.00;63355.56;5082777;28;20051;-76
2022/06/08 11:51:09;;;;;;;2.75;0.93;;;;;;;-141.50;100.00;63355.56;5082149;28;20084;-77
2022/06/08 11:53:38;;;;;;;1.50;1.00;;;;;;;-141.50;100.00;63355.56;5084071;28;20056;-78
2022/06/08 11:56:25;;;;;;;2.47;1.00;;;;;;;-141.50;100.00;63355.56;5083867;28;20151;-76
2022/06/08 11:58:56;;;;;;;3.40;1.10;;;;;;;-141.50;100.00;63355.56;5079454;28;20045;-80